createdAt,value
2022-08-12T00:00:56.942Z,100051.97
2022-08-12T00:03:43.437Z,100043.63
2022-08-12T00:06:29.377Z,100053.41
2022-08-12T00:09:17.019Z,100054.81
2022-08-12T00:12:04.042Z,100046.00
2022-08-12T00:14:50.711Z,100054.41
2022-08-12T00:17:37.766Z,100054.41
2022-08-12T00:20:24.771Z,100054.22
2022-08-12T00:23:16.570Z,100052.69
2022-08-12T00:26:22.668Z,100052.28
2022-08-12T00:29:11.140Z,100056.25
2022-08-12T00:31:57.991Z,100054.50
2022-08-12T00:34:46.431Z,100056.09
2022-08-12T00:37:37.508Z,100052.81
2022-08-12T00:40:24.707Z,100049.00
2022-08-12T00:42:53.419Z,100055.50
2022-08-12T00:45:21.740Z,100053.13
2022-08-12T00:47:49.403Z,100049.28
2022-08-12T00:50:20.176Z,100049.06
2022-08-12T00:52:48.628Z,100047.59
2022-08-12T00:55:17.629Z,100049.56
2022-08-12T00:57:47.929Z,100050.41
2022-08-12T01:00:19.202Z,100051.28
2022-08-12T01:02:48.091Z,100049.91
2022-08-12T01:05:35.677Z,100055.16
2022-08-12T01:08:22.140Z,100057.28
2022-08-12T01:11:08.450Z,100050.66
2022-08-12T01:13:39.790Z,100056.28
2022-08-12T01:16:07.744Z,100055.75
2022-08-12T01:18:36.517Z,100061.31
2022-08-12T01:21:08.287Z,100050.03
2022-08-12T01:23:36.317Z,100055.66
2022-08-12T01:26:04.810Z,100059.06
2022-08-12T01:28:32.074Z,100052.50
2022-08-12T01:31:01.844Z,100059.62
2022-08-12T01:33:31.254Z,100059.94
2022-08-12T01:36:07.863Z,100058.03
2022-08-12T01:38:38.022Z,100067.44
2022-08-12T01:41:05.831Z,100061.13
2022-08-12T01:43:33.285Z,100050.66
2022-08-12T01:46:09.907Z,100053.06
2022-08-12T01:48:46.454Z,100048.44
2022-08-12T01:51:24.465Z,100044.69
2022-08-12T01:54:06.533Z,100042.81
2022-08-12T01:56:54.835Z,100033.63
2022-08-12T01:59:49.554Z,100037.56
2022-08-12T02:02:19.349Z,100036.00
2022-08-12T02:05:06.987Z,100035.84
2022-08-12T02:07:56.285Z,100031.09
2022-08-12T02:11:01.831Z,100036.97
2022-08-12T02:13:49.176Z,100037.81
2022-08-12T02:16:25.499Z,100034.47
2022-08-12T02:19:03.899Z,100029.47
2022-08-12T02:22:04.806Z,100027.66
2022-08-12T02:24:32.841Z,100022.56
2022-08-12T02:27:00.375Z,100024.06
2022-08-12T02:29:27.577Z,100022.25
2022-08-12T02:31:55.802Z,100024.81
2022-08-12T02:34:24.535Z,100021.50
2022-08-12T02:36:54.671Z,100017.50
2022-08-12T02:39:22.072Z,100014.38
2022-08-12T02:41:49.794Z,100017.22
2022-08-12T02:44:17.686Z,100021.94
2022-08-12T02:46:50.158Z,100025.38
2022-08-12T02:49:19.801Z,100020.66
2022-08-12T02:51:47.127Z,100014.69
2022-08-12T02:54:15.612Z,100013.34
2022-08-12T02:56:50.392Z,100016.47
2022-08-12T02:59:19.717Z,100012.47
2022-08-12T03:01:48.711Z,100011.75
2022-08-12T03:04:25.675Z,100009.19
2022-08-12T03:06:58.580Z,100005.41
2022-08-12T03:09:26.747Z,100009.59
2022-08-12T03:12:08.535Z,100000.31
2022-08-12T03:14:38.168Z,100003.97
2022-08-12T03:17:12.508Z,100002.78
2022-08-12T03:20:09.765Z,100006.16
2022-08-12T03:22:32.189Z,100012.12
2022-08-12T03:25:06.717Z,100006.94
2022-08-12T03:27:35.528Z,100008.84
2022-08-12T03:30:05.237Z,100018.25
2022-08-12T03:32:40.002Z,100014.22
2022-08-12T03:35:08.715Z,100015.06
2022-08-12T03:38:00.314Z,100014.97
2022-08-12T03:40:46.917Z,100023.50
2022-08-12T03:43:40.357Z,100011.97
2022-08-12T03:46:27.917Z,100007.63
2022-08-12T03:49:14.654Z,100014.47
2022-08-12T03:52:00.903Z,100017.31
2022-08-12T03:54:47.784Z,100017.59
2022-08-12T03:57:33.942Z,100025.94
2022-08-12T04:00:23.993Z,100027.37
2022-08-12T04:03:01.862Z,100031.16
2022-08-12T04:05:54.225Z,100024.25
2022-08-12T04:08:18.002Z,100031.38
2022-08-12T04:11:05.264Z,100024.38
2022-08-12T04:13:36.134Z,100028.50
2022-08-12T04:16:07.648Z,100028.03
2022-08-12T04:18:35.817Z,100037.03
2022-08-12T04:21:03.875Z,100034.56
2022-08-12T04:23:31.718Z,100038.59
2022-08-12T04:26:01.335Z,100038.06
2022-08-12T04:28:28.995Z,100043.31
2022-08-12T04:30:59.872Z,100039.91
2022-08-12T04:33:27.544Z,100038.47
2022-08-12T04:35:56.419Z,100050.25
2022-08-12T04:38:24.011Z,100050.91
2022-08-12T04:40:53.784Z,100058.31
2022-08-12T04:44:00.627Z,100056.47
2022-08-12T04:46:12.534Z,100057.63
2022-08-12T04:48:42.231Z,100054.19
2022-08-12T04:51:15.769Z,100064.66
2022-08-12T04:53:45.028Z,100062.00
2022-08-12T04:56:13.767Z,100059.78
2022-08-12T04:58:41.274Z,100063.84
2022-08-12T05:01:09.030Z,100062.78
2022-08-12T05:03:46.842Z,100067.37
2022-08-12T05:06:26.491Z,100071.88
2022-08-12T05:09:01.293Z,100066.25
2022-08-12T05:11:39.687Z,100058.84
2022-08-12T05:14:24.587Z,100056.56
2022-08-12T05:16:54.540Z,100058.50
2022-08-12T05:19:22.602Z,100063.41
2022-08-12T05:21:50.851Z,100067.75
2022-08-12T05:24:21.951Z,100060.97
2022-08-12T05:26:49.486Z,100063.00
2022-08-12T05:30:08.009Z,100059.06
2022-08-12T05:32:10.993Z,100062.31
2022-08-12T05:34:42.813Z,100057.41
2022-08-12T05:37:14.637Z,100057.13
2022-08-12T05:39:49.311Z,100058.06
2022-08-12T05:42:18.580Z,100060.03
2022-08-12T05:45:00.592Z,100060.75
2022-08-12T05:47:38.485Z,100061.63
2022-08-12T05:50:19.191Z,100053.75
2022-08-12T05:52:48.199Z,100051.25
2022-08-12T05:55:26.962Z,100061.00
2022-08-12T05:58:03.655Z,100051.75
2022-08-12T06:00:34.194Z,100053.31
2022-08-12T06:03:02.793Z,100060.19
2022-08-12T06:05:54.235Z,100057.28
2022-08-12T06:08:22.764Z,100057.28
2022-08-12T06:10:51.779Z,100060.16
2022-08-12T06:13:28.572Z,100063.00
2022-08-12T06:16:13.090Z,100050.41
2022-08-12T06:18:41.290Z,100052.94
2022-08-12T06:21:16.714Z,100055.59
2022-08-12T06:23:51.732Z,100059.84
2022-08-12T06:26:21.798Z,100054.31
2022-08-12T06:28:51.962Z,100050.41
2022-08-12T06:31:26.301Z,100061.72
2022-08-12T06:34:00.650Z,100058.91
2022-08-12T06:36:48.016Z,100061.81
2022-08-12T06:39:20.323Z,100056.31
2022-08-12T06:42:32.781Z,100057.87
2022-08-12T06:45:03.740Z,100052.59
2022-08-12T06:47:36.341Z,100059.84
2022-08-12T06:50:04.188Z,100051.31
2022-08-12T06:52:32.431Z,100057.59
2022-08-12T06:55:02.897Z,100055.78
2022-08-12T06:58:05.099Z,100052.59
2022-08-12T07:00:32.350Z,100055.06
2022-08-12T07:03:16.362Z,100050.81
2022-08-12T07:05:53.771Z,100059.28
2022-08-12T07:08:23.697Z,100054.81
2022-08-12T07:11:02.184Z,100055.62
2022-08-12T07:13:36.215Z,100058.88
2022-08-12T07:16:52.025Z,100053.03
2022-08-12T07:19:45.053Z,100058.63
2022-08-12T07:22:16.709Z,100051.84
2022-08-12T07:25:10.812Z,100067.94
2022-08-12T07:27:40.882Z,100050.97
2022-08-12T07:30:10.251Z,100067.94
2022-08-12T07:32:40.043Z,100055.44
2022-08-12T07:35:08.539Z,100065.31
2022-08-12T07:37:40.896Z,100063.94
2022-08-12T07:40:11.854Z,100063.28
2022-08-12T07:42:49.010Z,100061.19
2022-08-12T07:45:19.772Z,100060.13
2022-08-12T07:47:48.404Z,100060.44
2022-08-12T07:50:21.454Z,100055.78
2022-08-12T07:52:51.850Z,100063.94
2022-08-12T07:55:26.725Z,100058.09
2022-08-12T07:57:58.757Z,100063.87
2022-08-12T08:00:28.462Z,100062.72
2022-08-12T08:02:59.044Z,100044.63
2022-08-12T08:05:28.287Z,100052.50
2022-08-12T08:08:01.844Z,100048.28
2022-08-12T08:10:30.811Z,100055.25
2022-08-12T08:13:06.827Z,100042.00
2022-08-12T08:18:31.788Z,100042.22
2022-08-12T08:21:05.760Z,100044.75
2022-08-12T08:23:56.062Z,100044.75
2022-08-12T08:26:27.317Z,100043.41
2022-08-12T08:29:03.789Z,100041.53
2022-08-12T08:31:33.984Z,100041.03
2022-08-12T08:34:47.152Z,100041.03
2022-08-12T08:37:07.579Z,100046.44
2022-08-12T08:39:36.187Z,100038.97
2022-08-12T08:42:22.847Z,100048.81
2022-08-12T08:44:58.478Z,100043.41
2022-08-12T08:47:32.672Z,100030.03
2022-08-12T08:50:03.567Z,100041.16
2022-08-12T08:52:41.909Z,100039.63
2022-08-12T08:55:14.028Z,100046.16
2022-08-12T08:57:44.628Z,100040.22
2022-08-12T09:00:17.138Z,100029.50
2022-08-12T09:02:59.058Z,100024.47
2022-08-12T09:06:01.563Z,100023.09
2022-08-12T09:08:28.526Z,100022.03
2022-08-12T09:12:10.957Z,100020.06
2022-08-12T09:14:18.925Z,100008.91
2022-08-12T09:16:50.082Z,100019.87
2022-08-12T09:19:26.916Z,100018.69
2022-08-12T09:22:00.894Z,100006.75
2022-08-12T09:24:37.685Z,100011.62
2022-08-12T09:30:10.867Z,100007.66
2022-08-12T09:33:05.311Z,99998.72
2022-08-12T09:35:42.917Z,99996.84
2022-08-12T09:38:27.858Z,100001.72
2022-08-12T09:42:07.202Z,99990.34
2022-08-12T09:44:16.955Z,99991.53
2022-08-12T09:46:57.408Z,100000.88
2022-08-12T09:49:41.504Z,99997.66
2022-08-12T09:52:19.473Z,99980.22
2022-08-12T09:54:55.014Z,99979.47
2022-08-12T09:58:07.969Z,99980.28
2022-08-12T10:00:19.396Z,99983.94
2022-08-12T10:03:32.525Z,99979.94
2022-08-12T10:06:26.295Z,99979.47
2022-08-12T10:08:52.614Z,99973.31
2022-08-12T10:12:10.221Z,99970.81
2022-08-12T10:14:40.158Z,99965.97
2022-08-12T10:17:23.654Z,99968.81
2022-08-12T10:19:59.762Z,99963.69
2022-08-12T10:22:40.027Z,99963.06
2022-08-12T10:26:18.478Z,99959.22
2022-08-12T10:28:41.538Z,99960.12
2022-08-12T10:31:47.363Z,99953.75
2022-08-12T10:34:30.189Z,99953.59
2022-08-12T10:37:22.526Z,99946.75
2022-08-12T10:40:08.251Z,99949.28
2022-08-12T10:43:05.726Z,99950.69
2022-08-12T10:45:38.100Z,99945.16
2022-08-12T10:48:19.448Z,99940.13
2022-08-12T10:51:02.451Z,99938.81
2022-08-12T10:53:45.928Z,99933.88
2022-08-12T10:56:17.839Z,99936.19
2022-08-12T10:58:48.731Z,99925.81
2022-08-12T11:04:14.722Z,99933.28
2022-08-12T11:04:35.629Z,99922.09
2022-08-12T11:08:34.302Z,99925.59
2022-08-12T11:10:00.646Z,99928.66
2022-08-12T11:13:00.023Z,99939.97
2022-08-12T11:16:03.813Z,99930.84
2022-08-12T11:18:27.086Z,99919.50
2022-08-12T11:21:05.735Z,99914.22
2022-08-12T11:23:37.012Z,99919.19
2022-08-12T11:26:07.971Z,99921.94
2022-08-12T11:28:44.891Z,99927.47
2022-08-12T11:31:56.276Z,99911.75
2022-08-12T11:34:53.562Z,99918.84
2022-08-12T11:37:24.830Z,99913.41
2022-08-12T11:42:39.702Z,99915.63
2022-08-12T11:45:16.960Z,99920.53
2022-08-12T11:47:55.608Z,99921.66
2022-08-12T11:50:42.124Z,99912.81
2022-08-12T11:53:59.591Z,99912.28
2022-08-12T11:56:08.428Z,99902.44
2022-08-12T12:02:02.813Z,99904.94
2022-08-12T12:04:29.423Z,99893.87
2022-08-12T12:07:07.029Z,99901.75
2022-08-12T12:09:51.826Z,99908.78
2022-08-12T12:12:25.713Z,99903.38
2022-08-12T12:15:06.631Z,99900.91
2022-08-12T12:17:38.296Z,99898.00
2022-08-12T12:20:12.563Z,99906.56
2022-08-12T12:22:47.103Z,99896.84
2022-08-12T12:25:15.721Z,99896.97
2022-08-12T12:28:04.616Z,99897.78
2022-08-12T12:30:37.915Z,99894.72
2022-08-12T12:33:18.129Z,99888.47
2022-08-12T12:36:18.754Z,99889.66
2022-08-12T12:41:16.795Z,99885.38
2022-08-12T12:43:45.169Z,99879.47
2022-08-12T12:46:32.054Z,99880.75
2022-08-12T12:49:11.043Z,99880.47
2022-08-12T12:51:48.748Z,99867.47
2022-08-12T12:54:28.917Z,99861.28
2022-08-12T12:56:57.136Z,99856.16
2022-08-12T12:59:33.747Z,99857.44
2022-08-12T13:02:31.384Z,99858.31
2022-08-12T13:05:01.849Z,99843.41
2022-08-12T13:07:49.577Z,99843.25
2022-08-12T13:10:24.092Z,99848.87
2022-08-12T13:14:06.851Z,99843.84
2022-08-12T13:16:05.116Z,99842.19
2022-08-12T13:18:58.748Z,99836.56
2022-08-12T13:21:33.315Z,99848.50
2022-08-12T13:24:09.526Z,99832.31
2022-08-12T13:26:40.909Z,99843.47
2022-08-12T13:29:12.988Z,99833.87
2022-08-12T13:32:19.108Z,99842.47
2022-08-12T13:34:52.975Z,99831.66
2022-08-12T13:37:44.085Z,99830.00
2022-08-12T13:40:36.937Z,99834.22
2022-08-12T13:45:40.909Z,99831.03
2022-08-12T13:48:19.886Z,99825.91
2022-08-12T13:50:50.085Z,99825.31
2022-08-12T13:53:24.567Z,99829.59
2022-08-12T13:56:15.754Z,99823.69
2022-08-12T13:58:52.596Z,99819.28
2022-08-12T14:01:22.204Z,99813.25
2022-08-12T14:03:55.335Z,99815.41
2022-08-12T14:06:25.964Z,99814.81
2022-08-12T14:09:17.516Z,99815.53
2022-08-12T14:11:59.421Z,99810.75
2022-08-12T14:14:42.944Z,99805.75
2022-08-12T14:20:03.307Z,99800.28
2022-08-12T14:22:34.166Z,99797.09
2022-08-12T14:25:02.788Z,99807.94
2022-08-12T14:28:03.611Z,99803.06
2022-08-12T14:33:03.425Z,99785.44
2022-08-12T14:35:41.320Z,99786.34
2022-08-12T14:38:34.887Z,99783.84
2022-08-12T14:41:05.155Z,99779.34
2022-08-12T14:43:44.418Z,99769.53
2022-08-12T14:46:32.991Z,99765.47
2022-08-12T14:49:27.599Z,99773.69
2022-08-12T14:56:59.901Z,99771.56
2022-08-12T14:57:24.161Z,99763.66
2022-08-12T15:02:56.241Z,99758.66
2022-08-12T15:06:06.715Z,99757.13
2022-08-12T15:11:17.299Z,99733.94
2022-08-12T15:13:56.980Z,99742.34
2022-08-12T15:19:25.830Z,99743.50
2022-08-12T15:22:35.953Z,99745.66
2022-08-12T15:24:49.959Z,99744.16
2022-08-12T15:27:22.556Z,99737.97
2022-08-12T15:30:00.156Z,99742.84
2022-08-12T15:32:34.519Z,99740.41
2022-08-12T15:35:07.865Z,99723.97
2022-08-12T15:40:30.290Z,99730.09
2022-08-12T15:43:00.777Z,99737.59
2022-08-12T15:45:32.399Z,99726.13
2022-08-12T15:48:20.269Z,99728.41
2022-08-12T15:50:53.102Z,99730.41
2022-08-12T15:53:51.246Z,99719.44
2022-08-12T15:56:29.085Z,99715.59
2022-08-12T15:58:59.769Z,99710.53
2022-08-12T16:01:44.119Z,99702.75
2022-08-12T16:04:17.171Z,99705.78
2022-08-12T16:07:10.164Z,99709.75
2022-08-12T16:09:56.535Z,99705.75
2022-08-12T16:12:37.335Z,99703.00
2022-08-12T16:15:08.469Z,99707.28
2022-08-12T16:18:17.715Z,99709.59
2022-08-12T16:20:33.517Z,99703.03
2022-08-12T16:23:26.247Z,99700.28
2022-08-12T16:26:14.688Z,99714.38
2022-08-12T16:28:47.420Z,99705.16
2022-08-12T16:31:22.945Z,99712.94
2022-08-12T16:33:59.825Z,99707.28
2022-08-12T16:36:30.101Z,99715.31
2022-08-12T16:39:02.205Z,99718.78
2022-08-12T16:41:37.807Z,99718.63
2022-08-12T16:44:20.873Z,99710.41
2022-08-12T16:52:22.973Z,99714.34
2022-08-12T16:55:04.774Z,99706.31
2022-08-12T16:57:44.313Z,99703.97
2022-08-12T17:00:20.071Z,99700.03
2022-08-12T17:02:57.412Z,99701.53
2022-08-12T17:05:31.420Z,99701.19
2022-08-12T17:08:01.782Z,99701.38
2022-08-12T17:10:37.190Z,99703.72
2022-08-12T17:13:13.960Z,99702.94
2022-08-12T17:16:04.634Z,99698.16
2022-08-12T17:18:43.151Z,99693.50
2022-08-12T17:21:40.887Z,99692.72
2022-08-12T17:24:28.982Z,99700.38
2022-08-12T17:27:09.630Z,99700.12
2022-08-12T17:30:03.281Z,99697.78
2022-08-12T17:32:37.351Z,99701.53
2022-08-12T17:38:21.112Z,99703.47
2022-08-12T17:40:55.497Z,99702.56
2022-08-12T17:43:55.883Z,99703.19
2022-08-12T17:46:24.012Z,99702.88
2022-08-12T17:49:00.499Z,99704.81
2022-08-12T17:51:50.114Z,99703.91
2022-08-12T17:54:20.779Z,99708.31
2022-08-12T17:56:51.463Z,99712.47
2022-08-12T17:59:48.295Z,99706.94
2022-08-12T18:02:25.609Z,99706.72
2022-08-12T18:05:04.976Z,99704.16
2022-08-12T18:07:43.975Z,99703.63
2022-08-12T18:10:13.876Z,99706.28
2022-08-12T18:12:50.989Z,99708.00
2022-08-12T18:15:26.471Z,99712.34
2022-08-12T18:18:19.638Z,99710.47
2022-08-12T18:20:57.912Z,99719.78
2022-08-12T18:23:28.997Z,99713.13
2022-08-12T18:26:17.739Z,99718.28
2022-08-12T18:28:55.656Z,99722.50
2022-08-12T18:31:44.786Z,99722.66
2022-08-12T18:34:26.883Z,99721.09
2022-08-12T18:37:10.349Z,99727.06
2022-08-12T18:40:12.187Z,99731.25
2022-08-12T18:42:59.253Z,99725.72
2022-08-12T18:45:31.580Z,99723.59
2022-08-12T18:48:27.034Z,99725.66
2022-08-12T18:51:05.415Z,99730.47
2022-08-12T18:54:07.001Z,99736.53
2022-08-12T18:56:37.018Z,99732.78
2022-08-12T18:59:59.479Z,99735.78
2022-08-12T19:02:22.049Z,99737.47
2022-08-12T19:04:58.063Z,99739.03
2022-08-12T19:07:49.511Z,99741.59
2022-08-12T19:10:27.842Z,99741.28
2022-08-12T19:13:23.079Z,99740.25
2022-08-12T19:15:54.218Z,99750.25
2022-08-12T19:18:30.810Z,99752.97
2022-08-12T19:21:06.466Z,99749.37
2022-08-12T19:26:43.357Z,99745.34
2022-08-12T19:29:11.507Z,99739.25
2022-08-12T19:31:57.192Z,99745.00
2022-08-12T19:35:13.878Z,99745.16
2022-08-12T19:37:38.517Z,99740.78
2022-08-12T19:40:31.909Z,99747.19
2022-08-12T19:43:20.300Z,99745.34
2022-08-12T19:45:56.249Z,99743.28
2022-08-12T19:48:30.533Z,99748.56
2022-08-12T19:51:22.536Z,99749.72
2022-08-12T19:53:57.861Z,99745.78
2022-08-12T19:56:29.635Z,99745.31
2022-08-12T19:59:21.960Z,99745.12
2022-08-12T20:02:02.611Z,99742.03
2022-08-12T20:04:38.099Z,99738.44
2022-08-12T20:07:24.025Z,99738.81
2022-08-12T20:09:57.250Z,99740.31
2022-08-12T20:12:34.557Z,99740.78
2022-08-12T20:15:10.258Z,99730.22
2022-08-12T20:17:50.862Z,99730.62
2022-08-12T20:20:28.257Z,99729.56
2022-08-12T20:25:52.874Z,99729.88
2022-08-12T20:28:30.035Z,99744.91
2022-08-12T20:31:01.761Z,99738.38
2022-08-12T20:33:56.386Z,99740.56
2022-08-12T20:36:40.641Z,99738.88
2022-08-12T20:39:52.862Z,99744.97
2022-08-12T20:42:09.584Z,99742.28
2022-08-12T20:44:41.055Z,99734.78
2022-08-12T20:47:18.769Z,99728.97
2022-08-12T20:49:55.305Z,99736.75
2022-08-12T20:52:29.925Z,99736.97
2022-08-12T20:55:02.080Z,99731.16
2022-08-12T20:57:38.407Z,99740.72
2022-08-12T21:00:28.092Z,99737.88
2022-08-12T21:03:16.289Z,99725.75
2022-08-12T21:06:10.223Z,99742.97
2022-08-12T21:08:42.856Z,99737.88
2022-08-12T21:11:11.082Z,99742.91
2022-08-12T21:13:42.079Z,99736.03
2022-08-12T21:16:14.080Z,99740.53
2022-08-12T21:21:24.198Z,99734.66
2022-08-12T21:24:09.101Z,99738.91
2022-08-12T21:26:40.067Z,99740.78
2022-08-12T21:29:12.627Z,99734.31
2022-08-12T21:32:39.594Z,99733.53
2022-08-12T21:34:41.271Z,99740.63
2022-08-12T21:37:26.796Z,99747.06
2022-08-12T21:39:56.318Z,99746.03
2022-08-12T21:42:33.943Z,99753.84
2022-08-12T21:45:48.036Z,99754.31
2022-08-12T21:47:53.302Z,99758.31
2022-08-12T21:50:22.100Z,99775.06
2022-08-12T21:53:10.310Z,99765.28
2022-08-12T21:55:39.658Z,99755.97
2022-08-12T21:58:16.722Z,99763.94
2022-08-12T22:00:45.124Z,99772.06
2022-08-12T22:04:03.497Z,99765.81
2022-08-12T22:06:31.734Z,99761.38
2022-08-12T22:09:16.216Z,99769.22
2022-08-12T22:11:56.914Z,99766.06
2022-08-12T22:14:29.740Z,99761.97
2022-08-12T22:16:57.701Z,99760.97
2022-08-12T22:19:27.024Z,99754.06
2022-08-12T22:21:58.322Z,99753.38
2022-08-12T22:24:30.129Z,99746.31
2022-08-12T22:27:22.873Z,99750.94
2022-08-12T22:30:17.734Z,99754.41
2022-08-12T22:32:50.390Z,99753.34
2022-08-12T22:35:47.708Z,99747.31
2022-08-12T22:38:25.337Z,99756.50
2022-08-12T22:40:56.877Z,99747.53
2022-08-12T22:44:00.370Z,99748.78
2022-08-12T22:46:33.648Z,99750.37
2022-08-12T22:49:02.217Z,99754.78
2022-08-12T22:51:59.860Z,99747.91
2022-08-12T22:54:35.590Z,99752.38
2022-08-12T22:57:12.104Z,99752.88
2022-08-12T22:59:55.739Z,99746.94
2022-08-12T23:02:28.914Z,99746.25
2022-08-12T23:04:58.238Z,99749.00
2022-08-12T23:07:26.012Z,99749.84
2022-08-12T23:09:54.897Z,99745.19
2022-08-12T23:12:48.909Z,99749.91
2022-08-12T23:15:17.075Z,99742.94
2022-08-12T23:17:46.976Z,99740.44
2022-08-12T23:20:15.260Z,99739.53
2022-08-12T23:22:56.004Z,99737.31
2022-08-12T23:25:32.527Z,99737.44
2022-08-12T23:28:38.507Z,99725.16
2022-08-12T23:31:11.061Z,99719.53
2022-08-12T23:34:00.600Z,99718.09
2022-08-12T23:36:39.083Z,99713.84
2022-08-12T23:40:06.772Z,99703.63
2022-08-12T23:42:17.906Z,99711.97
2022-08-12T23:44:46.225Z,99706.16
2022-08-12T23:47:17.514Z,99703.97
2022-08-12T23:49:57.395Z,99705.94
2022-08-12T23:52:34.111Z,99706.28
2022-08-12T23:55:24.063Z,99707.97
2022-08-12T23:58:20.991Z,99698.47
